sensor_id;sensor_type;location;lat;lon;timestamp;pressure;altitude;pressure_sealevel;temperature;humidity
28448;BME280;15675;52.870;-1.416;2023-06-26T00:01:26;100899.28;;;16.11;100.00
28448;BME280;15675;52.870;-1.416;2023-06-26T00:03:55;100894.00;;;16.12;100.00
28448;BME280;15675;52.870;-1.416;2023-06-26T00:06:21;100886.06;;;16.18;100.00
28448;BME280;15675;52.870;-1.416;2023-06-26T00:08:50;100896.72;;;16.06;100.00
28448;BME280;15675;52.870;-1.416;2023-06-26T00:11:16;100900.03;;;16.17;100.00
28448;BME280;15675;52.870;-1.416;2023-06-26T00:13:41;100895.06;;;16.02;100.00
28448;BME280;15675;52.870;-1.416;2023-06-26T00:16:07;100909.19;;;15.90;100.00
28448;BME280;15675;52.870;-1.416;2023-06-26T00:18:32;100909.88;;;16.01;100.00
28448;BME280;15675;52.870;-1.416;2023-06-26T00:20:58;100915.94;;;16.07;100.00
28448;BME280;15675;52.870;-1.416;2023-06-26T00:23:23;100917.13;;;16.38;100.00
28448;BME280;15675;52.870;-1.416;2023-06-26T00:25:49;100920.97;;;16.17;100.00
28448;BME280;15675;52.870;-1.416;2023-06-26T00:28:14;100922.75;;;16.15;100.00
28448;BME280;15675;52.870;-1.416;2023-06-26T00:30:40;100915.78;;;16.14;100.00
28448;BME280;15675;52.870;-1.416;2023-06-26T00:33:05;100911.50;;;16.10;100.00
28448;BME280;15675;52.870;-1.416;2023-06-26T00:35:31;100925.66;;;15.98;100.00
28448;BME280;15675;52.870;-1.416;2023-06-26T00:37:56;100923.66;;;16.13;100.00
28448;BME280;15675;52.870;-1.416;2023-06-26T00:40:22;100924.22;;;16.33;100.00
28448;BME280;15675;52.870;-1.416;2023-06-26T00:42:47;100919.34;;;16.10;100.00
28448;BME280;15675;52.870;-1.416;2023-06-26T00:45:13;100925.34;;;16.17;100.00
28448;BME280;15675;52.870;-1.416;2023-06-26T00:47:39;100928.69;;;16.27;100.00
28448;BME280;15675;52.870;-1.416;2023-06-26T00:50:05;100935.75;;;16.21;100.00
28448;BME280;15675;52.870;-1.416;2023-06-26T00:52:31;100931.28;;;16.28;100.00
28448;BME280;15675;52.870;-1.416;2023-06-26T00:54:57;100933.06;;;16.26;100.00
28448;BME280;15675;52.870;-1.416;2023-06-26T00:57:23;100928.78;;;16.22;100.00
28448;BME280;15675;52.870;-1.416;2023-06-26T00:59:49;100935.91;;;16.12;100.00
28448;BME280;15675;52.870;-1.416;2023-06-26T01:02:15;100942.63;;;16.27;100.00
28448;BME280;15675;52.870;-1.416;2023-06-26T01:04:50;100942.56;;;16.33;100.00
28448;BME280;15675;52.870;-1.416;2023-06-26T01:07:18;100943.84;;;16.61;100.00
28448;BME280;15675;52.870;-1.416;2023-06-26T01:09:48;100952.63;;;17.06;100.00
28448;BME280;15675;52.870;-1.416;2023-06-26T01:12:14;100941.81;;;17.23;100.00
28448;BME280;15675;52.870;-1.416;2023-06-26T01:14:40;100946.34;;;16.67;100.00
28448;BME280;15675;52.870;-1.416;2023-06-26T01:17:06;100942.03;;;16.63;100.00
28448;BME280;15675;52.870;-1.416;2023-06-26T01:19:33;100941.63;;;16.36;100.00
28448;BME280;15675;52.870;-1.416;2023-06-26T01:27:30;100946.28;;;16.18;100.00
28448;BME280;15675;52.870;-1.416;2023-06-26T01:30:00;100945.72;;;15.99;100.00
28448;BME280;15675;52.870;-1.416;2023-06-26T01:32:28;100954.22;;;16.14;100.00
28448;BME280;15675;52.870;-1.416;2023-06-26T01:34:54;100959.81;;;15.91;100.00
28448;BME280;15675;52.870;-1.416;2023-06-26T01:37:19;100961.50;;;15.92;100.00
28448;BME280;15675;52.870;-1.416;2023-06-26T01:39:45;100963.72;;;16.19;100.00
28448;BME280;15675;52.870;-1.416;2023-06-26T01:42:11;100958.56;;;16.15;100.00
28448;BME280;15675;52.870;-1.416;2023-06-26T01:44:42;100965.47;;;16.17;100.00
28448;BME280;15675;52.870;-1.416;2023-06-26T01:47:09;100957.63;;;16.17;100.00
28448;BME280;15675;52.870;-1.416;2023-06-26T01:50:13;100960.81;;;15.80;100.00
28448;BME280;15675;52.870;-1.416;2023-06-26T01:52:48;100962.50;;;15.83;100.00
28448;BME280;15675;52.870;-1.416;2023-06-26T01:55:20;100958.81;;;15.99;100.00
28448;BME280;15675;52.870;-1.416;2023-06-26T01:57:47;100963.38;;;15.85;100.00
28448;BME280;15675;52.870;-1.416;2023-06-26T02:00:15;100958.28;;;15.73;100.00
28448;BME280;15675;52.870;-1.416;2023-06-26T02:02:44;100959.84;;;15.86;100.00
28448;BME280;15675;52.870;-1.416;2023-06-26T02:05:09;100965.25;;;15.72;100.00
28448;BME280;15675;52.870;-1.416;2023-06-26T02:07:35;100959.91;;;15.81;100.00
28448;BME280;15675;52.870;-1.416;2023-06-26T02:10:01;100952.19;;;15.69;100.00
28448;BME280;15675;52.870;-1.416;2023-06-26T02:12:27;100955.69;;;15.71;100.00
28448;BME280;15675;52.870;-1.416;2023-06-26T02:14:53;100960.78;;;15.83;100.00
28448;BME280;15675;52.870;-1.416;2023-06-26T02:17:18;100955.56;;;15.82;100.00
28448;BME280;15675;52.870;-1.416;2023-06-26T02:19:44;100950.41;;;15.73;100.00
28448;BME280;15675;52.870;-1.416;2023-06-26T02:22:13;100963.41;;;15.80;100.00
28448;BME280;15675;52.870;-1.416;2023-06-26T02:24:40;100961.34;;;16.04;100.00
28448;BME280;15675;52.870;-1.416;2023-06-26T02:27:06;100972.13;;;15.82;100.00
28448;BME280;15675;52.870;-1.416;2023-06-26T02:29:31;100968.72;;;15.74;100.00
28448;BME280;15675;52.870;-1.416;2023-06-26T02:31:57;100977.47;;;15.70;100.00
28448;BME280;15675;52.870;-1.416;2023-06-26T02:34:22;100978.31;;;15.74;100.00
28448;BME280;15675;52.870;-1.416;2023-06-26T02:36:48;100975.69;;;15.75;100.00
28448;BME280;15675;52.870;-1.416;2023-06-26T02:39:13;100973.91;;;15.76;100.00
28448;BME280;15675;52.870;-1.416;2023-06-26T02:41:40;100982.88;;;15.59;100.00
28448;BME280;15675;52.870;-1.416;2023-06-26T02:44:05;100976.16;;;15.38;100.00
28448;BME280;15675;52.870;-1.416;2023-06-26T02:46:32;100984.75;;;15.49;100.00
28448;BME280;15675;52.870;-1.416;2023-06-26T02:48:59;100988.03;;;15.64;100.00
28448;BME280;15675;52.870;-1.416;2023-06-26T02:51:24;100996.88;;;15.55;100.00
28448;BME280;15675;52.870;-1.416;2023-06-26T02:53:50;100996.97;;;15.47;100.00
28448;BME280;15675;52.870;-1.416;2023-06-26T02:56:15;100990.06;;;15.40;100.00
28448;BME280;15675;52.870;-1.416;2023-06-26T02:58:41;100987.78;;;15.14;100.00
28448;BME280;15675;52.870;-1.416;2023-06-26T03:01:06;100985.16;;;15.14;100.00
28448;BME280;15675;52.870;-1.416;2023-06-26T03:03:32;100979.16;;;15.04;100.00
28448;BME280;15675;52.870;-1.416;2023-06-26T03:06:08;100997.47;;;15.02;100.00
28448;BME280;15675;52.870;-1.416;2023-06-26T03:08:36;100999.19;;;15.07;100.00
28448;BME280;15675;52.870;-1.416;2023-06-26T03:11:02;101007.13;;;14.96;100.00
28448;BME280;15675;52.870;-1.416;2023-06-26T03:13:27;101000.88;;;15.11;100.00
28448;BME280;15675;52.870;-1.416;2023-06-26T03:15:53;101007.03;;;15.05;100.00
28448;BME280;15675;52.870;-1.416;2023-06-26T03:18:18;101004.50;;;14.94;100.00
28448;BME280;15675;52.870;-1.416;2023-06-26T03:20:44;101007.06;;;15.04;100.00
28448;BME280;15675;52.870;-1.416;2023-06-26T03:23:09;101010.59;;;14.95;100.00
28448;BME280;15675;52.870;-1.416;2023-06-26T03:25:35;101013.31;;;14.86;100.00
28448;BME280;15675;52.870;-1.416;2023-06-26T03:28:00;101010.69;;;14.87;100.00
28448;BME280;15675;52.870;-1.416;2023-06-26T03:30:26;101008.19;;;14.78;100.00
28448;BME280;15675;52.870;-1.416;2023-06-26T03:32:51;101015.03;;;14.88;100.00
28448;BME280;15675;52.870;-1.416;2023-06-26T03:35:17;101016.00;;;14.78;100.00
28448;BME280;15675;52.870;-1.416;2023-06-26T03:37:43;101018.59;;;14.81;100.00
28448;BME280;15675;52.870;-1.416;2023-06-26T03:40:09;101022.06;;;14.80;100.00
28448;BME280;15675;52.870;-1.416;2023-06-26T03:42:35;101023.94;;;14.67;100.00
28448;BME280;15675;52.870;-1.416;2023-06-26T03:45:00;101029.16;;;14.65;100.00
28448;BME280;15675;52.870;-1.416;2023-06-26T03:47:26;101027.31;;;14.80;100.00
28448;BME280;15675;52.870;-1.416;2023-06-26T03:49:51;101034.13;;;14.96;100.00
28448;BME280;15675;52.870;-1.416;2023-06-26T03:52:17;101039.31;;;15.01;100.00
28448;BME280;15675;52.870;-1.416;2023-06-26T03:54:42;101038.41;;;15.00;100.00
28448;BME280;15675;52.870;-1.416;2023-06-26T03:57:08;101044.41;;;15.16;100.00
28448;BME280;15675;52.870;-1.416;2023-06-26T03:59:34;101033.84;;;15.24;100.00
28448;BME280;15675;52.870;-1.416;2023-06-26T04:01:59;101038.06;;;15.36;100.00
28448;BME280;15675;52.870;-1.416;2023-06-26T04:04:25;101039.72;;;15.43;100.00
28448;BME280;15675;52.870;-1.416;2023-06-26T04:06:50;101045.75;;;15.51;100.00
28448;BME280;15675;52.870;-1.416;2023-06-26T04:09:16;101043.94;;;15.58;100.00
28448;BME280;15675;52.870;-1.416;2023-06-26T04:11:42;101043.16;;;15.48;100.00
28448;BME280;15675;52.870;-1.416;2023-06-26T04:14:08;101055.22;;;15.60;100.00
28448;BME280;15675;52.870;-1.416;2023-06-26T04:16:33;101060.56;;;15.52;100.00
28448;BME280;15675;52.870;-1.416;2023-06-26T04:18:59;101061.31;;;15.64;100.00
28448;BME280;15675;52.870;-1.416;2023-06-26T04:21:24;101058.69;;;15.64;100.00
28448;BME280;15675;52.870;-1.416;2023-06-26T04:23:50;101067.25;;;15.80;100.00
28448;BME280;15675;52.870;-1.416;2023-06-26T04:26:16;101074.38;;;15.64;100.00
28448;BME280;15675;52.870;-1.416;2023-06-26T04:28:42;101074.44;;;15.61;100.00
28448;BME280;15675;52.870;-1.416;2023-06-26T04:31:08;101076.16;;;15.59;100.00
28448;BME280;15675;52.870;-1.416;2023-06-26T04:33:34;101075.16;;;15.74;100.00
28448;BME280;15675;52.870;-1.416;2023-06-26T04:36:02;101081.09;;;15.90;100.00
28448;BME280;15675;52.870;-1.416;2023-06-26T04:38:29;101086.97;;;16.05;100.00
28448;BME280;15675;52.870;-1.416;2023-06-26T04:40:54;101090.31;;;16.17;100.00
28448;BME280;15675;52.870;-1.416;2023-06-26T04:43:20;101084.06;;;16.27;100.00
28448;BME280;15675;52.870;-1.416;2023-06-26T04:45:45;101084.91;;;16.29;100.00
28448;BME280;15675;52.870;-1.416;2023-06-26T04:48:11;101080.41;;;16.41;100.00
28448;BME280;15675;52.870;-1.416;2023-06-26T04:50:36;101085.22;;;16.67;100.00
28448;BME280;15675;52.870;-1.416;2023-06-26T04:53:02;101082.53;;;16.71;100.00
28448;BME280;15675;52.870;-1.416;2023-06-26T04:55:28;101085.38;;;17.12;100.00
28448;BME280;15675;52.870;-1.416;2023-06-26T04:57:53;101088.97;;;17.06;100.00
28448;BME280;15675;52.870;-1.416;2023-06-26T05:00:19;101090.41;;;17.24;100.00
28448;BME280;15675;52.870;-1.416;2023-06-26T05:02:45;101090.34;;;17.28;100.00
28448;BME280;15675;52.870;-1.416;2023-06-26T05:05:11;101092.09;;;16.74;100.00
28448;BME280;15675;52.870;-1.416;2023-06-26T05:07:37;101101.06;;;16.61;100.00
28448;BME280;15675;52.870;-1.416;2023-06-26T05:10:03;101101.00;;;16.64;100.00
28448;BME280;15675;52.870;-1.416;2023-06-26T05:12:29;101100.84;;;16.73;100.00
28448;BME280;15675;52.870;-1.416;2023-06-26T05:14:54;101105.22;;;16.72;100.00
28448;BME280;15675;52.870;-1.416;2023-06-26T05:17:20;101109.91;;;17.10;100.00
28448;BME280;15675;52.870;-1.416;2023-06-26T05:19:45;101110.53;;;17.22;100.00
28448;BME280;15675;52.870;-1.416;2023-06-26T05:22:12;101104.41;;;17.23;100.00
28448;BME280;15675;52.870;-1.416;2023-06-26T05:24:39;101114.25;;;17.11;100.00
28448;BME280;15675;52.870;-1.416;2023-06-26T05:27:05;101117.72;;;17.11;100.00
28448;BME280;15675;52.870;-1.416;2023-06-26T05:29:32;101121.19;;;17.15;100.00
28448;BME280;15675;52.870;-1.416;2023-06-26T05:31:58;101118.25;;;17.32;100.00
28448;BME280;15675;52.870;-1.416;2023-06-26T05:34:24;101116.75;;;17.65;100.00
28448;BME280;15675;52.870;-1.416;2023-06-26T05:36:57;101113.28;;;17.65;100.00
28448;BME280;15675;52.870;-1.416;2023-06-26T05:39:23;101122.69;;;17.75;100.00
28448;BME280;15675;52.870;-1.416;2023-06-26T05:41:50;101117.13;;;17.45;100.00
28448;BME280;15675;52.870;-1.416;2023-06-26T05:44:15;101121.53;;;17.88;100.00
28448;BME280;15675;52.870;-1.416;2023-06-26T05:46:42;101125.47;;;17.66;100.00
28448;BME280;15675;52.870;-1.416;2023-06-26T05:49:07;101128.94;;;17.69;100.00
28448;BME280;15675;52.870;-1.416;2023-06-26T05:51:33;101130.72;;;17.19;100.00
28448;BME280;15675;52.870;-1.416;2023-06-26T05:53:59;101130.06;;;17.07;100.00
28448;BME280;15675;52.870;-1.416;2023-06-26T05:56:25;101133.94;;;17.35;100.00
28448;BME280;15675;52.870;-1.416;2023-06-26T05:58:52;101131.06;;;17.47;100.00
28448;BME280;15675;52.870;-1.416;2023-06-26T06:01:18;101143.25;;;17.51;100.00
28448;BME280;15675;52.870;-1.416;2023-06-26T06:03:45;101146.97;;;17.86;100.00
28448;BME280;15675;52.870;-1.416;2023-06-26T06:06:11;101151.91;;;18.03;100.00
28448;BME280;15675;52.870;-1.416;2023-06-26T06:08:36;101149.78;;;18.21;100.00
28448;BME280;15675;52.870;-1.416;2023-06-26T06:11:02;101153.28;;;18.23;100.00
28448;BME280;15675;52.870;-1.416;2023-06-26T06:13:27;101149.94;;;18.15;100.00
28448;BME280;15675;52.870;-1.416;2023-06-26T06:15:53;101148.28;;;18.10;100.00
28448;BME280;15675;52.870;-1.416;2023-06-26T06:18:20;101135.63;;;17.86;99.06
28448;BME280;15675;52.870;-1.416;2023-06-26T06:20:45;101149.25;;;17.58;100.00
28448;BME280;15675;52.870;-1.416;2023-06-26T06:23:11;101144.63;;;17.24;100.00
28448;BME280;15675;52.870;-1.416;2023-06-26T06:25:36;101151.81;;;17.61;100.00
28448;BME280;15675;52.870;-1.416;2023-06-26T06:28:04;101149.84;;;17.72;100.00
28448;BME280;15675;52.870;-1.416;2023-06-26T06:30:29;101159.22;;;17.39;100.00
28448;BME280;15675;52.870;-1.416;2023-06-26T06:32:55;101157.66;;;17.75;100.00
28448;BME280;15675;52.870;-1.416;2023-06-26T06:35:20;101151.63;;;17.72;97.08
28448;BME280;15675;52.870;-1.416;2023-06-26T06:37:46;101155.44;;;18.02;94.68
28448;BME280;15675;52.870;-1.416;2023-06-26T06:40:12;101146.63;;;18.05;91.31
28448;BME280;15675;52.870;-1.416;2023-06-26T06:42:37;101160.44;;;17.69;94.13
28448;BME280;15675;52.870;-1.416;2023-06-26T06:45:04;101158.72;;;17.67;90.66
28448;BME280;15675;52.870;-1.416;2023-06-26T06:47:31;101162.78;;;17.83;95.22
28448;BME280;15675;52.870;-1.416;2023-06-26T06:49:56;101167.78;;;17.50;93.76
28448;BME280;15675;52.870;-1.416;2023-06-26T06:52:22;101169.69;;;17.89;94.86
28448;BME280;15675;52.870;-1.416;2023-06-26T06:54:55;101168.31;;;17.68;92.77
28448;BME280;15675;52.870;-1.416;2023-06-26T06:57:24;101180.16;;;17.92;92.98
28448;BME280;15675;52.870;-1.416;2023-06-26T06:59:50;101171.06;;;17.62;90.87
28448;BME280;15675;52.870;-1.416;2023-06-26T07:02:18;101189.16;;;17.27;89.47
28448;BME280;15675;52.870;-1.416;2023-06-26T07:04:44;101191.78;;;17.25;90.91
28448;BME280;15675;52.870;-1.416;2023-06-26T07:07:10;101198.19;;;17.09;92.80
28448;BME280;15675;52.870;-1.416;2023-06-26T07:09:36;101199.03;;;17.11;92.43
28448;BME280;15675;52.870;-1.416;2023-06-26T07:12:02;101200.03;;;17.02;90.75
28448;BME280;15675;52.870;-1.416;2023-06-26T07:14:28;101208.56;;;17.17;89.42
28448;BME280;15675;52.870;-1.416;2023-06-26T07:16:53;101202.53;;;17.10;89.73
28448;BME280;15675;52.870;-1.416;2023-06-26T07:19:19;101199.47;;;17.38;89.67
28448;BME280;15675;52.870;-1.416;2023-06-26T07:21:44;101219.03;;;17.18;87.11
28448;BME280;15675;52.870;-1.416;2023-06-26T07:24:11;101214.50;;;17.28;87.24
28448;BME280;15675;52.870;-1.416;2023-06-26T07:26:37;101209.44;;;17.69;87.78
28448;BME280;15675;52.870;-1.416;2023-06-26T07:29:02;101193.09;;;18.01;84.84
28448;BME280;15675;52.870;-1.416;2023-06-26T07:31:28;101211.06;;;18.23;83.56
28448;BME280;15675;52.870;-1.416;2023-06-26T07:33:53;101202.13;;;18.32;81.74
28448;BME280;15675;52.870;-1.416;2023-06-26T07:36:19;101212.00;;;18.61;78.85
28448;BME280;15675;52.870;-1.416;2023-06-26T07:38:45;101207.09;;;18.02;79.50
28448;BME280;15675;52.870;-1.416;2023-06-26T07:41:11;101213.16;;;18.48;78.85
28448;BME280;15675;52.870;-1.416;2023-06-26T07:43:36;101218.84;;;18.27;80.32
28448;BME280;15675;52.870;-1.416;2023-06-26T07:46:02;101200.31;;;17.88;80.35
28448;BME280;15675;52.870;-1.416;2023-06-26T07:48:27;101216.94;;;18.36;80.06
28448;BME280;15675;52.870;-1.416;2023-06-26T07:50:53;101231.47;;;18.10;79.00
28448;BME280;15675;52.870;-1.416;2023-06-26T07:53:19;101224.81;;;17.89;81.21
28448;BME280;15675;52.870;-1.416;2023-06-26T07:55:44;101218.03;;;17.79;81.49
28448;BME280;15675;52.870;-1.416;2023-06-26T07:58:10;101227.47;;;18.33;82.14
28448;BME280;15675;52.870;-1.416;2023-06-26T08:00:36;101222.75;;;18.50;77.52
28448;BME280;15675;52.870;-1.416;2023-06-26T08:03:02;101214.25;;;17.93;76.35
28448;BME280;15675;52.870;-1.416;2023-06-26T08:05:27;101222.22;;;17.87;77.29
28448;BME280;15675;52.870;-1.416;2023-06-26T08:07:53;101221.13;;;18.01;78.42
28448;BME280;15675;52.870;-1.416;2023-06-26T08:10:18;101235.75;;;18.13;77.63
28448;BME280;15675;52.870;-1.416;2023-06-26T08:12:44;101235.19;;;18.42;77.06
28448;BME280;15675;52.870;-1.416;2023-06-26T08:15:11;101230.78;;;18.42;76.26
28448;BME280;15675;52.870;-1.416;2023-06-26T08:17:37;101222.66;;;18.11;77.85
28448;BME280;15675;52.870;-1.416;2023-06-26T08:20:03;101224.44;;;18.93;75.37
28448;BME280;15675;52.870;-1.416;2023-06-26T08:22:29;101238.16;;;19.08;73.71
28448;BME280;15675;52.870;-1.416;2023-06-26T08:24:55;101222.50;;;18.61;71.10
28448;BME280;15675;52.870;-1.416;2023-06-26T08:27:21;101225.69;;;18.75;71.74
28448;BME280;15675;52.870;-1.416;2023-06-26T08:29:47;101225.47;;;18.88;70.73
28448;BME280;15675;52.870;-1.416;2023-06-26T08:32:13;101221.28;;;19.53;69.07
28448;BME280;15675;52.870;-1.416;2023-06-26T08:34:38;101226.44;;;19.21;65.57
28448;BME280;15675;52.870;-1.416;2023-06-26T08:37:04;101228.78;;;18.96;63.31
28448;BME280;15675;52.870;-1.416;2023-06-26T08:39:29;101224.53;;;18.90;64.09
28448;BME280;15675;52.870;-1.416;2023-06-26T08:41:55;101224.41;;;19.31;63.38
28448;BME280;15675;52.870;-1.416;2023-06-26T08:44:21;101233.19;;;18.95;63.66
28448;BME280;15675;52.870;-1.416;2023-06-26T08:46:50;101232.47;;;18.89;64.92
28448;BME280;15675;52.870;-1.416;2023-06-26T08:49:43;101224.16;;;19.42;62.60
28448;BME280;15675;52.870;-1.416;2023-06-26T08:52:13;101230.78;;;19.22;63.97
28448;BME280;15675;52.870;-1.416;2023-06-26T08:54:45;101236.94;;;18.82;62.43
28448;BME280;15675;52.870;-1.416;2023-06-26T08:57:12;101241.31;;;19.22;62.84
28448;BME280;15675;52.870;-1.416;2023-06-26T08:59:38;101245.25;;;19.75;63.51
28448;BME280;15675;52.870;-1.416;2023-06-26T09:02:04;101233.03;;;19.72;62.65
28448;BME280;15675;52.870;-1.416;2023-06-26T09:04:30;101230.81;;;19.21;59.97
28448;BME280;15675;52.870;-1.416;2023-06-26T09:06:55;101245.22;;;19.42;60.45
28448;BME280;15675;52.870;-1.416;2023-06-26T09:09:21;101249.50;;;19.46;61.75
28448;BME280;15675;52.870;-1.416;2023-06-26T09:11:46;101256.03;;;19.29;62.07
28448;BME280;15675;52.870;-1.416;2023-06-26T09:14:13;101228.53;;;19.43;60.42
28448;BME280;15675;52.870;-1.416;2023-06-26T09:16:40;101250.03;;;19.24;62.18
28448;BME280;15675;52.870;-1.416;2023-06-26T09:19:12;101243.03;;;19.59;60.00
28448;BME280;15675;52.870;-1.416;2023-06-26T09:21:42;101241.63;;;19.46;59.54
28448;BME280;15675;52.870;-1.416;2023-06-26T09:24:09;101233.13;;;19.69;60.76
28448;BME280;15675;52.870;-1.416;2023-06-26T09:26:36;101247.84;;;19.76;63.91
28448;BME280;15675;52.870;-1.416;2023-06-26T09:29:02;101250.69;;;20.03;63.31
28448;BME280;15675;52.870;-1.416;2023-06-26T09:31:28;101257.44;;;19.44;62.82
28448;BME280;15675;52.870;-1.416;2023-06-26T09:33:58;101261.63;;;19.17;62.75
28448;BME280;15675;52.870;-1.416;2023-06-26T09:36:29;101250.31;;;19.48;62.76
28448;BME280;15675;52.870;-1.416;2023-06-26T09:39:04;101258.59;;;19.34;61.85
28448;BME280;15675;52.870;-1.416;2023-06-26T09:41:30;101257.63;;;19.73;62.89
28448;BME280;15675;52.870;-1.416;2023-06-26T09:44:01;101258.91;;;19.91;61.04
28448;BME280;15675;52.870;-1.416;2023-06-26T09:46:27;101262.22;;;19.64;59.97
28448;BME280;15675;52.870;-1.416;2023-06-26T09:49:01;101264.91;;;19.27;59.95
28448;BME280;15675;52.870;-1.416;2023-06-26T09:51:29;101264.19;;;18.78;61.58
28448;BME280;15675;52.870;-1.416;2023-06-26T09:53:55;101281.03;;;18.69;63.49
28448;BME280;15675;52.870;-1.416;2023-06-26T09:56:21;101269.09;;;18.96;63.59
28448;BME280;15675;52.870;-1.416;2023-06-26T09:58:47;101272.31;;;19.47;63.84
28448;BME280;15675;52.870;-1.416;2023-06-26T10:01:13;101274.63;;;19.95;64.92
28448;BME280;15675;52.870;-1.416;2023-06-26T10:03:38;101281.28;;;19.74;60.35
28448;BME280;15675;52.870;-1.416;2023-06-26T10:06:04;101259.88;;;20.21;60.81
28448;BME280;15675;52.870;-1.416;2023-06-26T10:08:31;101264.91;;;20.29;59.45
28448;BME280;15675;52.870;-1.416;2023-06-26T10:10:58;101257.59;;;20.39;58.17
28448;BME280;15675;52.870;-1.416;2023-06-26T10:13:35;101265.69;;;20.32;57.41
28448;BME280;15675;52.870;-1.416;2023-06-26T10:16:03;101285.47;;;20.16;58.46
28448;BME280;15675;52.870;-1.416;2023-06-26T10:18:31;101285.78;;;19.69;60.22
28448;BME280;15675;52.870;-1.416;2023-06-26T10:20:58;101282.03;;;19.79;61.75
28448;BME280;15675;52.870;-1.416;2023-06-26T10:23:25;101297.03;;;19.40;62.71
28448;BME280;15675;52.870;-1.416;2023-06-26T10:25:55;101303.94;;;19.06;62.15
28448;BME280;15675;52.870;-1.416;2023-06-26T10:28:23;101307.72;;;19.70;63.76
28448;BME280;15675;52.870;-1.416;2023-06-26T10:30:53;101293.09;;;19.92;66.93
28448;BME280;15675;52.870;-1.416;2023-06-26T10:33:20;101292.34;;;20.53;60.82
28448;BME280;15675;52.870;-1.416;2023-06-26T10:35:46;101292.22;;;20.88;62.96
28448;BME280;15675;52.870;-1.416;2023-06-26T10:38:11;101282.31;;;20.34;58.07
28448;BME280;15675;52.870;-1.416;2023-06-26T10:40:47;101288.47;;;20.33;59.19
28448;BME280;15675;52.870;-1.416;2023-06-26T10:43:14;101302.03;;;20.21;59.87
28448;BME280;15675;52.870;-1.416;2023-06-26T10:45:50;101302.28;;;19.76;60.24
28448;BME280;15675;52.870;-1.416;2023-06-26T10:48:20;101302.13;;;19.83;59.98
28448;BME280;15675;52.870;-1.416;2023-06-26T10:50:49;101296.56;;;20.27;60.81
28448;BME280;15675;52.870;-1.416;2023-06-26T10:56:02;101304.34;;;20.32;61.99
28448;BME280;15675;52.870;-1.416;2023-06-26T10:58:32;101322.94;;;19.94;61.06
28448;BME280;15675;52.870;-1.416;2023-06-26T11:03:40;101315.53;;;18.97;61.07
28448;BME280;15675;52.870;-1.416;2023-06-26T11:06:12;101315.31;;;19.07;60.96
28448;BME280;15675;52.870;-1.416;2023-06-26T11:08:50;101316.41;;;19.73;63.17
28448;BME280;15675;52.870;-1.416;2023-06-26T11:11:17;101306.63;;;20.13;61.47
28448;BME280;15675;52.870;-1.416;2023-06-26T11:13:45;101298.78;;;20.43;59.54
28448;BME280;15675;52.870;-1.416;2023-06-26T11:16:11;101310.81;;;19.87;58.45
28448;BME280;15675;52.870;-1.416;2023-06-26T11:18:38;101319.44;;;19.56;58.37
28448;BME280;15675;52.870;-1.416;2023-06-26T11:21:07;101319.69;;;19.47;58.49
28448;BME280;15675;52.870;-1.416;2023-06-26T11:23:35;101327.31;;;19.58;58.58
28448;BME280;15675;52.870;-1.416;2023-06-26T11:28:49;101322.09;;;19.92;60.40
28448;BME280;15675;52.870;-1.416;2023-06-26T11:31:27;101340.50;;;19.19;61.73
28448;BME280;15675;52.870;-1.416;2023-06-26T11:33:55;101335.38;;;19.12;62.70
28448;BME280;15675;52.870;-1.416;2023-06-26T11:36:25;101328.91;;;19.27;63.47
28448;BME280;15675;52.870;-1.416;2023-06-26T11:38:58;101333.28;;;19.28;62.89
28448;BME280;15675;52.870;-1.416;2023-06-26T11:41:26;101326.53;;;19.54;63.05
28448;BME280;15675;52.870;-1.416;2023-06-26T11:43:52;101332.75;;;19.50;62.23
28448;BME280;15675;52.870;-1.416;2023-06-26T11:46:19;101331.50;;;19.29;62.82
28448;BME280;15675;52.870;-1.416;2023-06-26T11:48:45;101331.91;;;19.48;62.00
28448;BME280;15675;52.870;-1.416;2023-06-26T11:51:15;101333.28;;;19.64;61.36
28448;BME280;15675;52.870;-1.416;2023-06-26T11:53:42;101334.28;;;19.96;61.38
28448;BME280;15675;52.870;-1.416;2023-06-26T11:56:12;101323.97;;;20.22;59.21
28448;BME280;15675;52.870;-1.416;2023-06-26T11:59:00;101324.50;;;20.02;57.66
28448;BME280;15675;52.870;-1.416;2023-06-26T12:01:30;101331.59;;;19.98;58.13
28448;BME280;15675;52.870;-1.416;2023-06-26T12:03:59;101329.06;;;20.59;60.00
28448;BME280;15675;52.870;-1.416;2023-06-26T12:06:26;101321.72;;;20.06;58.14
28448;BME280;15675;52.870;-1.416;2023-06-26T12:08:51;101341.00;;;19.72;59.61
28448;BME280;15675;52.870;-1.416;2023-06-26T12:11:17;101334.13;;;20.03;59.99
28448;BME280;15675;52.870;-1.416;2023-06-26T12:13:43;101324.63;;;20.30;58.59
28448;BME280;15675;52.870;-1.416;2023-06-26T12:16:10;101332.84;;;20.17;58.90
28448;BME280;15675;52.870;-1.416;2023-06-26T12:18:36;101347.31;;;20.35;59.39
28448;BME280;15675;52.870;-1.416;2023-06-26T12:21:01;101337.34;;;20.14;58.95
28448;BME280;15675;52.870;-1.416;2023-06-26T12:23:38;101338.78;;;20.26;58.55
28448;BME280;15675;52.870;-1.416;2023-06-26T12:26:20;101344.47;;;20.10;60.17
28448;BME280;15675;52.870;-1.416;2023-06-26T12:28:46;101354.44;;;19.61;61.28
28448;BME280;15675;52.870;-1.416;2023-06-26T12:31:16;101342.91;;;19.67;61.26
28448;BME280;15675;52.870;-1.416;2023-06-26T12:33:45;101327.13;;;20.34;62.32
28448;BME280;15675;52.870;-1.416;2023-06-26T12:36:14;101339.47;;;20.65;62.24
28448;BME280;15675;52.870;-1.416;2023-06-26T12:38:45;101323.28;;;21.08;58.68
28448;BME280;15675;52.870;-1.416;2023-06-26T12:41:12;101317.97;;;21.09;57.83
28448;BME280;15675;52.870;-1.416;2023-06-26T12:43:39;101294.22;;;20.49;54.37
28448;BME280;15675;52.870;-1.416;2023-06-26T12:46:05;101319.34;;;20.61;54.80
28448;BME280;15675;52.870;-1.416;2023-06-26T12:51:10;101329.03;;;20.92;55.60